Time;durP1;ratioP1;P1;durP2;ratioP2;P2;SDS_P1;SDS_P2;PMS_P1;PMS_P2;Temp;Humidity;BMP_temperature;BMP_pressure;BME280_temperature;BME280_humidity;BME280_pressure;Samples;Min_cycle;Max_cycle;Signal;HPM_P1;HPM_P2
2022/04/26 03:38:31;;;;;;;;;;;;;;;10.86;66.56;99763.47;5013991;28;19946;-64
2022/04/26 03:41:14;;;;;;;;;;;;;;;10.85;66.74;99762.59;4999250;28;20442;-65
2022/04/26 03:43:59;;;;;;;;;;;;;;;10.84;66.69;99763.44;5014340;28;19975;-64
2022/04/26 03:46:42;;;;;;;;;;;;;;;10.85;66.63;99774.69;5014315;28;20594;-65
2022/04/26 03:49:27;;;;;;;;;;;;;;;10.86;66.71;99766.94;5014143;28;19924;-64
2022/04/26 03:52:11;;;;;;;;;;;;;;;10.88;66.71;99775.59;5013914;28;19924;-64
2022/04/26 03:54:55;;;;;;;;;;;;;;;10.88;66.90;99775.59;5013895;28;20336;-64
2022/04/26 03:57:39;;;;;;;;;;;;;;;10.89;66.79;99774.75;5013901;28;19924;-64
2022/04/26 04:00:23;;;;;;;;;;;;;;;10.89;66.78;99779.94;5014017;28;19932;-64
2022/04/26 04:03:07;;;;;;;;;;;;;;;10.88;66.70;99782.50;4999085;28;19940;-65
2022/04/26 04:05:51;;;;;;;;;;;;;;;10.84;66.74;99776.41;5014579;28;19924;-65
2022/04/26 04:08:35;;;;;;;;;;;;;;;10.85;66.82;99779.88;5014091;28;20439;-65
2022/04/26 04:11:19;;;;;;;;;;;;;;;10.84;66.76;99778.16;5013889;28;19944;-64
2022/04/26 04:14:03;;;;;;;;;;;;;;;10.85;67.04;99782.47;4999077;28;20431;-64
2022/04/26 04:16:46;;;;;;;;;;;;;;;10.84;66.78;99781.59;4999215;28;19967;-64
2022/04/26 04:19:30;;;;;;;;;;;;;;;10.84;66.84;99773.81;5014232;28;19924;-65
2022/04/26 04:22:14;;;;;;;;;;;;;;;10.84;67.04;99785.91;5013799;28;19923;-65
2022/04/26 04:24:58;;;;;;;;;;;;;;;10.84;67.06;99783.31;5013802;28;19924;-64
2022/04/26 04:27:42;;;;;;;;;;;;;;;10.85;66.94;99790.25;5013973;28;19925;-64
2022/04/26 04:30:26;;;;;;;;;;;;;;;10.84;67.04;99791.97;4998826;28;19924;-64
2022/04/26 04:33:10;;;;;;;;;;;;;;;10.85;67.02;99790.25;5013556;28;19993;-64
2022/04/26 04:35:54;;;;;;;;;;;;;;;10.85;66.86;99792.84;5013818;28;20438;-64
2022/04/26 04:38:38;;;;;;;;;;;;;;;10.84;67.06;99798.88;4998907;28;19924;-65
2022/04/26 04:41:22;;;;;;;;;;;;;;;10.82;66.94;99804.91;5013461;28;19925;-65
2022/04/26 04:44:07;;;;;;;;;;;;;;;10.82;67.19;99810.09;5013544;28;19940;-64
2022/04/26 04:46:51;;;;;;;;;;;;;;;10.82;67.38;99812.69;5013768;28;19963;-64
2022/04/26 04:49:34;;;;;;;;;;;;;;;10.81;66.98;99812.69;5013504;28;19924;-65
2022/04/26 04:52:18;;;;;;;;;;;;;;;10.80;67.00;99823.91;5013451;28;19971;-64
2022/04/26 04:55:02;;;;;;;;;;;;;;;10.77;67.64;99822.13;5013412;28;19924;-64
2022/04/26 04:57:46;;;;;;;;;;;;;;;10.78;67.45;99828.22;5013369;28;19924;-64
2022/04/26 05:00:30;;;;;;;;;;;;;;;10.77;67.33;99829.06;5013589;28;19924;-64
2022/04/26 05:03:14;;;;;;;;;;;;;;;10.75;67.43;99841.97;4998458;28;20039;-64
2022/04/26 05:05:58;;;;;;;;;;;;;;;10.75;67.05;99839.38;5016131;28;19964;-64
2022/04/26 05:08:42;;;;;;;;;;;;;;;10.75;67.48;99847.16;5017007;28;20015;-64
2022/04/26 05:11:27;;;;;;;;;;;;;;;10.75;67.16;99846.31;5016869;28;20440;-64
2022/04/26 05:14:11;;;;;;;;;;;;;;;10.74;67.46;99849.75;5017153;28;19924;-65
2022/04/26 05:16:55;;;;;;;;;;;;;;;10.74;67.23;99854.94;5016721;28;19928;-64
2022/04/26 05:19:39;;;;;;;;;;;;;;;10.73;67.57;99858.38;5016321;28;20450;-64
2022/04/26 05:22:23;;;;;;;;;;;;;;;10.74;67.15;99858.41;5016659;28;19949;-65
2022/04/26 05:25:07;;;;;;;;;;;;;;;10.74;67.26;99854.94;5001957;28;19960;-64
2022/04/26 05:27:51;;;;;;;;;;;;;;;10.72;67.46;99862.69;5016626;28;19956;-64
2022/04/26 05:30:35;;;;;;;;;;;;;;;10.71;67.35;99865.25;5016549;28;19951;-64
2022/04/26 05:33:19;;;;;;;;;;;;;;;10.71;67.23;99863.56;5016628;28;19923;-64
2022/04/26 05:36:03;;;;;;;;;;;;;;;10.72;67.40;99856.63;5016722;28;19923;-64
2022/04/26 05:38:47;;;;;;;;;;;;;;;10.72;67.11;99856.63;5015985;28;20415;-64
2022/04/26 05:41:31;;;;;;;;;;;;;;;10.71;67.20;99855.78;5001870;28;19924;-64
2022/04/26 05:44:15;;;;;;;;;;;;;;;10.70;67.16;99859.22;5016547;28;20304;-64
2022/04/26 05:47:01;;;;;;;;;;;;;;;10.69;67.65;99872.13;5016371;28;20328;-64
2022/04/26 05:49:45;;;;;;;;;;;;;;;10.68;67.24;99865.22;5001256;28;19928;-65
2022/04/26 05:52:29;;;;;;;;;;;;;;;10.67;67.37;99866.94;5016544;28;19963;-64
2022/04/26 05:55:13;;;;;;;;;;;;;;;10.65;67.49;99866.94;5001692;28;19967;-64
2022/04/26 05:57:57;;;;;;;;;;;;;;;10.63;67.44;99878.13;5016148;28;19924;-64
2022/04/26 06:00:41;;;;;;;;;;;;;;;10.60;67.43;99883.25;5016180;28;20046;-64
2022/04/26 06:03:25;;;;;;;;;;;;;;;10.58;67.36;99883.25;5016023;28;19996;-64
2022/04/26 06:06:09;;;;;;;;;;;;;;;10.57;67.36;99885.81;5016240;28;19924;-64
2022/04/26 06:08:53;;;;;;;;;;;;;;;10.57;67.62;99891.88;5001340;28;19924;-65
2022/04/26 06:11:37;;;;;;;;;;;;;;;10.57;67.66;99893.59;5015796;28;19925;-64
2022/04/26 06:14:21;;;;;;;;;;;;;;;10.55;67.40;99901.34;5001006;28;19924;-64
2022/04/26 06:17:05;;;;;;;;;;;;;;;10.55;67.16;99898.75;5014248;28;19955;-64
2022/04/26 06:19:49;;;;;;;;;;;;;;;10.53;67.51;99903.03;5001243;28;20280;-64
2022/04/26 06:22:33;;;;;;;;;;;;;;;10.53;67.44;99899.59;5015749;28;20376;-64
2022/04/26 06:25:17;;;;;;;;;;;;;;;10.51;67.54;99902.13;5015136;28;19924;-65
2022/04/26 06:28:03;;;;;;;;;;;;;;;10.51;67.69;99903.03;5000710;28;19924;-64
2022/04/26 06:30:46;;;;;;;;;;;;;;;10.49;67.73;99906.47;5001171;28;20441;-64
2022/04/26 06:33:31;;;;;;;;;;;;;;;10.49;67.23;99903.88;5015010;28;19967;-64
2022/04/26 06:36:15;;;;;;;;;;;;;;;10.48;67.25;99909.91;5000995;28;19971;-64
2022/04/26 06:38:59;;;;;;;;;;;;;;;10.50;67.71;99903.00;5015408;28;19972;-64
2022/04/26 06:41:43;;;;;;;;;;;;;;;10.49;67.57;99906.47;5000863;28;19923;-64
2022/04/26 06:44:26;;;;;;;;;;;;;;;10.48;67.63;99910.75;5000233;28;19970;-64
2022/04/26 06:47:10;;;;;;;;;;;;;;;10.47;67.58;99910.75;5000441;28;19925;-64
2022/04/26 06:49:54;;;;;;;;;;;;;;;10.46;67.31;99914.19;5015247;28;19940;-64
2022/04/26 06:52:38;;;;;;;;;;;;;;;10.45;67.64;99910.69;5014884;28;19979;-64
2022/04/26 06:55:22;;;;;;;;;;;;;;;10.46;67.71;99912.44;5000162;28;20033;-64
2022/04/26 06:58:06;;;;;;;;;;;;;;;10.45;67.51;99922.81;5014901;28;19924;-64
2022/04/26 07:00:50;;;;;;;;;;;;;;;10.47;67.41;99927.13;5000403;28;19924;-65
2022/04/26 07:03:34;;;;;;;;;;;;;;;10.45;67.40;99921.06;5015408;28;19927;-64
2022/04/26 07:06:18;;;;;;;;;;;;;;;10.44;67.22;99928.81;4999926;28;19924;-64
2022/04/26 07:09:03;;;;;;;;;;;;;;;10.43;67.61;99930.53;5000328;28;19925;-64
2022/04/26 07:11:47;;;;;;;;;;;;;;;10.46;67.51;99929.72;5014558;28;19924;-65
2022/04/26 07:14:31;;;;;;;;;;;;;;;10.45;67.23;99930.56;4999639;28;19967;-64
2022/04/26 07:17:17;;;;;;;;;;;;;;;10.45;67.62;99931.44;5014780;28;20331;-64
2022/04/26 07:20:00;;;;;;;;;;;;;;;10.46;67.67;99935.75;5000023;28;19924;-63
2022/04/26 07:22:44;;;;;;;;;;;;;;;10.46;67.63;99940.09;5014710;28;19923;-65
2022/04/26 07:25:28;;;;;;;;;;;;;;;10.43;67.65;99943.47;5014814;28;19924;-64
2022/04/26 07:28:12;;;;;;;;;;;;;;;10.43;67.63;99942.63;5014102;28;19991;-64
2022/04/26 07:30:56;;;;;;;;;;;;;;;10.43;67.72;99943.47;5014417;28;20414;-65
2022/04/26 07:36:43;;;;;;;;;;;;;;;10.44;67.37;99952.16;5014662;28;21883;-65
2022/04/26 07:39:27;;;;;;;;;;;;;;;10.43;67.42;99956.44;5014172;28;19972;-64
2022/04/26 07:42:11;;;;;;;;;;;;;;;10.43;67.62;99958.16;4999550;28;20455;-64
2022/04/26 07:44:55;;;;;;;;;;;;;;;10.42;67.63;99956.44;4999724;28;20380;-64
2022/04/26 07:47:39;;;;;;;;;;;;;;;10.42;67.65;99951.25;4999912;28;19924;-64
2022/04/26 07:50:22;;;;;;;;;;;;;;;10.43;67.64;99950.41;5014130;28;19928;-64
2022/04/26 07:53:06;;;;;;;;;;;;;;;10.43;67.66;99961.63;5013974;28;20285;-64
2022/04/26 07:55:50;;;;;;;;;;;;;;;10.42;67.38;99964.19;5014338;28;20332;-64
2022/04/26 07:58:34;;;;;;;;;;;;;;;10.43;67.67;99978.91;5014150;28;19924;-65
2022/04/26 08:01:18;;;;;;;;;;;;;;;10.43;67.55;99982.34;4999346;28;19944;-65
2022/04/26 08:04:02;;;;;;;;;;;;;;;10.43;67.66;99981.50;5014059;28;20332;-64
2022/04/26 08:06:46;;;;;;;;;;;;;;;10.44;67.71;99988.41;5014148;28;20288;-65
2022/04/26 08:09:35;;;;;;;;;;;;;;;10.45;67.67;99987.56;5013713;28;19964;-65
2022/04/26 08:12:19;;;;;;;;;;;;;;;10.44;67.30;99994.47;5014145;28;19924;-65
2022/04/26 08:15:03;;;;;;;;;;;;;;;10.45;67.44;100005.72;5014264;28;19971;-64
2022/04/26 08:17:48;;;;;;;;;;;;;;;10.44;67.68;100001.38;5014058;28;19925;-64
2022/04/26 08:20:33;;;;;;;;;;;;;;;10.45;67.30;100005.72;5014060;28;19924;-64
2022/04/26 08:23:16;;;;;;;;;;;;;;;10.43;67.62;100005.66;4999243;28;19924;-65
2022/04/26 08:29:03;;;;;;;;;;;;;;;10.44;67.57;100017.78;5013688;28;19923;-64
2022/04/26 08:31:47;;;;;;;;;;;;;;;10.45;67.20;100022.13;5013795;28;20343;-65
2022/04/26 08:34:31;;;;;;;;;;;;;;;10.44;67.64;100024.69;4998547;28;20009;-64
2022/04/26 08:37:15;;;;;;;;;;;;;;;10.43;67.71;100030.72;4998650;28;20281;-65
2022/04/26 08:39:59;;;;;;;;;;;;;;;10.42;67.57;100040.22;5014926;28;19971;-64
2022/04/26 08:42:44;;;;;;;;;;;;;;;10.43;67.73;100038.50;5003060;28;19964;-65
2022/04/26 08:45:28;;;;;;;;;;;;;;;10.41;67.65;100037.59;5002544;28;19923;-64
2022/04/26 08:51:14;;;;;;;;;;;;;;;10.41;67.41;100051.44;5017376;28;19940;-64
2022/04/26 08:53:58;;;;;;;;;;;;;;;10.41;67.66;100054.03;5017084;28;19924;-64
2022/04/26 08:56:42;;;;;;;;;;;;;;;10.42;67.58;100054.88;5017306;28;19924;-64
2022/04/26 08:59:26;;;;;;;;;;;;;;;10.41;67.62;100058.31;5017425;28;19943;-65
2022/04/26 09:02:18;;;;;;;;;;;;;;;10.42;67.54;100065.25;5016932;28;19924;-64
2022/04/26 09:05:09;;;;;;;;;;;;;;;10.42;67.67;100067.84;5002504;28;20269;-64
2022/04/26 09:07:53;;;;;;;;;;;;;;;10.39;67.71;100071.25;5002128;28;20349;-65
2022/04/26 09:10:46;;;;;;;;;;;;;;;10.38;67.72;100074.69;5002399;28;20289;-64
2022/04/26 09:13:40;;;;;;;;;;;;;;;10.40;67.68;100073.00;5002463;28;20384;-64
2022/04/26 09:16:23;;;;;;;;;;;;;;;10.37;67.64;100078.09;5016495;28;19924;-64
2022/04/26 09:19:08;;;;;;;;;;;;;;;10.37;67.85;100075.50;5016601;28;19999;-64
2022/04/26 09:21:56;;;;;;;;;;;;;;;10.37;67.87;100083.28;5016310;28;20412;-64
2022/04/26 09:24:54;;;;;;;;;;;;;;;10.36;67.97;100077.19;5016778;28;19971;-64
2022/04/26 09:27:39;;;;;;;;;;;;;;;10.36;67.67;100087.56;5001644;28;20335;-64
2022/04/26 09:30:27;;;;;;;;;;;;;;;10.36;67.93;100087.56;5002158;28;19975;-64
2022/04/26 09:33:11;;;;;;;;;;;;;;;10.39;67.66;100083.31;5016410;28;20009;-64
2022/04/26 09:36:15;;;;;;;;;;;;;;;10.37;67.57;100088.47;5016397;28;19924;-66
2022/04/26 09:39:00;;;;;;;;;;;;;;;10.38;67.94;100090.25;5001878;28;20004;-65
2022/04/26 09:41:52;;;;;;;;;;;;;;;10.37;67.72;100098.81;5016430;28;19972;-65
2022/04/26 09:44:40;;;;;;;;;;;;;;;10.37;67.87;100096.22;5016177;28;19925;-65
2022/04/26 09:47:54;;;;;;;;;;;;;;;10.35;67.47;100096.19;5001670;28;20419;-65
2022/04/26 09:50:38;;;;;;;;;;;;;;;10.36;68.00;100103.09;4999539;28;20032;-65
2022/04/26 09:53:22;;;;;;;;;;;;;;;10.36;67.88;100103.09;5001762;28;19972;-65
2022/04/26 09:56:06;;;;;;;;;;;;;;;10.35;67.92;100109.13;5015967;28;20012;-64
2022/04/26 09:58:51;;;;;;;;;;;;;;;10.33;67.91;100108.25;5015804;28;19924;-64
2022/04/26 10:01:40;;;;;;;;;;;;;;;10.33;67.54;100113.44;5015710;28;19924;-64
2022/04/26 10:04:26;;;;;;;;;;;;;;;10.31;67.79;100109.94;5015315;28;19924;-65
2022/04/26 10:07:12;;;;;;;;;;;;;;;10.33;67.57;100113.44;5000145;28;20403;-65
2022/04/26 10:09:56;;;;;;;;;;;;;;;10.33;67.90;100113.44;5000097;28;19928;-64
2022/04/26 10:12:41;;;;;;;;;;;;;;;10.33;67.84;100120.31;5014503;28;20407;-65
2022/04/26 10:15:25;;;;;;;;;;;;;;;10.34;67.77;100115.19;5014640;28;19943;-64
2022/04/26 10:18:33;;;;;;;;;;;;;;;10.32;67.97;100114.28;4999929;28;19983;-64
2022/04/26 10:21:23;;;;;;;;;;;;;;;10.32;68.08;100123.75;4999409;28;19923;-64
2022/04/26 10:24:20;;;;;;;;;;;;;;;10.32;68.06;100124.66;5014560;28;20392;-64
2022/04/26 10:27:19;;;;;;;;;;;;;;;10.32;67.90;100127.25;5000106;28;19925;-64
2022/04/26 10:30:03;;;;;;;;;;;;;;;10.32;67.94;100123.75;4999570;28;19923;-64
2022/04/26 10:32:47;;;;;;;;;;;;;;;10.33;67.89;100128.09;5014743;28;20283;-64
2022/04/26 10:35:31;;;;;;;;;;;;;;;10.34;67.73;100130.72;5014809;28;20396;-64
2022/04/26 10:38:16;;;;;;;;;;;;;;;10.34;67.86;100124.66;5013942;28;20300;-64
2022/04/26 10:41:06;;;;;;;;;;;;;;;10.33;67.82;100131.56;5000161;28;19994;-64
2022/04/26 10:44:13;;;;;;;;;;;;;;;10.33;67.83;100134.16;5014681;28;19970;-64
2022/04/26 10:47:03;;;;;;;;;;;;;;;10.34;68.00;100140.22;4998952;28;19924;-65
2022/04/26 10:49:48;;;;;;;;;;;;;;;10.36;67.50;100128.16;5014265;28;20383;-64
2022/04/26 10:52:35;;;;;;;;;;;;;;;10.37;67.99;100129.91;4999555;28;19924;-64
2022/04/26 10:55:24;;;;;;;;;;;;;;;10.39;67.79;100135.13;5014273;28;19960;-65
2022/04/26 10:58:08;;;;;;;;;;;;;;;10.40;67.90;100132.59;5014306;28;20383;-65
2022/04/26 11:00:52;;;;;;;;;;;;;;;10.41;67.89;100130.84;5014135;28;20402;-64
2022/04/26 11:03:52;;;;;;;;;;;;;;;10.42;67.85;100128.31;5144909;27;19962;-64
2022/04/26 11:06:37;;;;;;;;;;;;;;;10.45;67.77;100132.66;5111105;28;19927;-64
2022/04/26 11:09:22;;;;;;;;;;;;;;;10.43;67.71;100132.63;5110271;28;19927;-64
2022/04/26 11:12:06;;;;;;;;;;;;;;;10.46;67.83;100142.19;5110515;28;20333;-64
2022/04/26 11:14:51;;;;;;;;;;;;;;;10.47;67.97;100141.34;5111400;28;19965;-64
2022/04/26 11:17:35;;;;;;;;;;;;;;;10.47;67.73;100142.22;5110989;28;19927;-64
2022/04/26 11:20:20;;;;;;;;;;;;;;;10.48;67.95;100143.94;5111926;28;20069;-65
2022/04/26 11:28:00;;;;;;;;;;;;;;;10.49;67.49;100147.44;5110026;28;19927;-64
2022/04/26 11:29:21;;;;;;;;;;;;;;;10.51;67.67;100156.97;5111375;28;19931;-64
2022/04/26 11:32:05;;;;;;;;;;;;;;;10.51;67.96;100153.50;5110625;28;19993;-64
2022/04/26 11:34:49;;;;;;;;;;;;;;;10.50;67.55;100154.38;5111065;28;20069;-64
2022/04/26 11:37:42;;;;;;;;;;;;;;;10.52;67.99;100160.41;5110237;28;20405;-64
2022/04/26 11:40:30;;;;;;;;;;;;;;;10.52;67.52;100160.41;5111508;28;19972;-64
2022/04/26 11:43:18;;;;;;;;;;;;;;;10.52;67.84;100155.25;5110013;28;19927;-64
2022/04/26 11:46:03;;;;;;;;;;;;;;;10.51;68.05;100164.75;5110811;28;20337;-65
2022/04/26 11:48:47;;;;;;;;;;;;;;;10.54;67.68;100170.84;5111311;28;19927;-64
2022/04/26 11:51:31;;;;;;;;;;;;;;;10.55;67.91;100164.81;5110778;28;19931;-65
2022/04/26 11:54:34;;;;;;;;;;;;;;;10.56;67.82;100170.00;5110445;28;19974;-64
2022/04/26 11:57:21;;;;;;;;;;;;;;;10.56;67.41;100170.00;5109880;28;19926;-64
2022/04/26 12:00:05;;;;;;;;;;;;;;;10.57;67.65;100176.09;5110331;28;19931;-64
2022/04/26 12:02:49;;;;;;;;;;;;;;;10.58;67.68;100178.69;5110557;28;19972;-65
2022/04/26 12:05:35;;;;;;;;;;;;;;;10.59;67.51;100177.84;5111017;28;19966;-64
2022/04/26 12:08:21;;;;;;;;;;;;;;;10.59;67.62;100180.44;5109421;28;19962;-64
2022/04/26 12:11:32;;;;;;;;;;;;;;;10.60;67.86;100179.59;5109787;28;19967;-64
2022/04/26 12:14:19;;;;;;;;;;;;;;;10.62;67.84;100182.19;5101417;28;19969;-64
2022/04/26 12:17:03;;;;;;;;;;;;;;;10.63;67.44;100183.94;5095939;28;19942;-64
2022/04/26 12:19:50;;;;;;;;;;;;;;;10.63;67.41;100182.25;5096078;28;19928;-64
2022/04/26 12:22:37;;;;;;;;;;;;;;;10.64;67.87;100175.31;5095495;28;20362;-64
2022/04/26 12:25:22;;;;;;;;;;;;;;;10.63;67.87;100179.66;5095810;28;19931;-64
2022/04/26 12:28:06;;;;;;;;;;;;;;;10.63;67.60;100174.47;5096231;28;19926;-64
2022/04/26 12:30:50;;;;;;;;;;;;;;;10.63;67.77;100178.75;5096500;28;19928;-64
2022/04/26 12:33:36;;;;;;;;;;;;;;;10.65;67.43;100167.59;5095665;28;19927;-64
2022/04/26 12:36:19;;;;;;;;;;;;;;;10.65;67.58;100172.78;5096229;28;19943;-64
2022/04/26 12:39:03;;;;;;;;;;;;;;;10.65;67.46;100170.19;5096847;28;19928;-64
2022/04/26 12:41:49;;;;;;;;;;;;;;;10.69;67.59;100178.00;5096326;28;19943;-64
2022/04/26 12:44:32;;;;;;;;;;;;;;;10.67;67.67;100170.19;5095954;28;19943;-64
2022/04/26 12:50:29;;;;;;;;;;;;;;;10.70;67.41;100177.16;5096781;28;19973;-64
2022/04/26 12:53:20;;;;;;;;;;;;;;;10.69;67.35;100171.09;5095608;28;19927;-64
2022/04/26 12:56:09;;;;;;;;;;;;;;;10.69;67.35;100175.41;5096483;28;20404;-64
2022/04/26 12:58:53;;;;;;;;;;;;;;;10.69;67.36;100171.09;5095837;28;19969;-64
2022/04/26 13:01:37;;;;;;;;;;;;;;;10.70;67.26;100164.19;5095591;28;19927;-65
2022/04/26 13:04:20;;;;;;;;;;;;;;;10.71;67.41;100168.53;5095401;28;20027;-64
2022/04/26 13:07:05;;;;;;;;;;;;;;;10.72;67.50;100172.88;5094908;28;19943;-64
2022/04/26 13:09:49;;;;;;;;;;;;;;;10.73;67.47;100161.66;5095025;28;20008;-65
2022/04/26 13:12:33;;;;;;;;;;;;;;;10.75;67.67;100163.41;5095417;28;20306;-64
2022/04/26 13:15:19;;;;;;;;;;;;;;;10.75;67.33;100160.81;5095855;28;19927;-64
2022/04/26 13:18:04;;;;;;;;;;;;;;;10.77;67.43;100166.06;5095632;28;19927;-64
2022/04/26 13:20:48;;;;;;;;;;;;;;;10.76;67.43;100161.72;5095553;28;19968;-64
2022/04/26 13:23:35;;;;;;;;;;;;;;;10.76;67.19;100167.75;5095020;28;20324;-64
2022/04/26 13:26:18;;;;;;;;;;;;;;;10.77;67.05;100168.66;5093962;28;20337;-64
2022/04/26 13:29:03;;;;;;;;;;;;;;;10.76;67.43;100164.31;5094135;28;19976;-64
2022/04/26 13:31:47;;;;;;;;;;;;;;;10.79;67.52;100166.97;5094950;28;20360;-64
2022/04/26 13:34:32;;;;;;;;;;;;;;;10.78;67.22;100160.03;5095746;28;19931;-64
2022/04/26 13:37:17;;;;;;;;;;;;;;;10.79;67.16;100166.97;5094235;28;20393;-64
2022/04/26 13:40:02;;;;;;;;;;;;;;;10.80;67.34;100160.94;5094220;28;20064;-65
2022/04/26 13:42:45;;;;;;;;;;;;;;;10.80;67.18;100158.34;5095041;28;19927;-64
2022/04/26 13:45:29;;;;;;;;;;;;;;;10.81;67.12;100162.69;5095452;28;20366;-64
2022/04/26 13:48:13;;;;;;;;;;;;;;;10.81;67.08;100160.94;5094776;28;19927;-64
2022/04/26 13:50:57;;;;;;;;;;;;;;;10.84;67.00;100167.88;5095500;28;20274;-64
2022/04/26 13:53:41;;;;;;;;;;;;;;;10.87;66.92;100167.09;5094866;28;19930;-64
2022/04/26 13:56:26;;;;;;;;;;;;;;;10.85;67.29;100161.84;5095294;28;19973;-64
2022/04/26 13:59:10;;;;;;;;;;;;;;;10.87;67.10;100172.28;5095287;28;19931;-64
2022/04/26 14:01:54;;;;;;;;;;;;;;;10.86;66.91;100166.19;5093759;28;19927;-64
2022/04/26 14:04:38;;;;;;;;;;;;;;;10.85;67.54;100167.03;5094444;28;19973;-64
2022/04/26 14:07:22;;;;;;;;;;;;;;;10.85;67.23;100171.38;5094624;28;19942;-64
2022/04/26 14:10:07;;;;;;;;;;;;;;;10.84;67.17;100170.47;5095127;28;19927;-64
2022/04/26 14:12:51;;;;;;;;;;;;;;;10.82;67.02;100162.69;5093537;28;19931;-64
2022/04/26 14:21:50;;;;;;;;;;;;;;;10.77;67.33;100159.13;5094318;28;20445;-64
2022/04/26 14:24:34;;;;;;;;;;;;;;;10.77;67.04;100151.34;5093734;28;19970;-64
2022/04/26 14:27:19;;;;;;;;;;;;;;;10.77;67.54;100153.94;5094423;28;20416;-64
2022/04/26 14:30:04;;;;;;;;;;;;;;;10.78;67.28;100158.28;5093948;28;19927;-64
2022/04/26 14:32:49;;;;;;;;;;;;;;;10.78;67.44;100162.63;5094304;28;19943;-64
2022/04/26 14:35:32;;;;;;;;;;;;;;;10.80;67.04;100155.75;5094165;28;19927;-64
2022/04/26 14:38:16;;;;;;;;;;;;;;;10.79;67.47;100169.56;5092648;28;20316;-64
2022/04/26 14:41:00;;;;;;;;;;;;;;;10.79;67.15;100167.81;5093593;28;19973;-64
2022/04/26 14:43:44;;;;;;;;;;;;;;;10.80;67.50;100172.16;5092813;28;19942;-64
2022/04/26 14:46:28;;;;;;;;;;;;;;;10.80;67.26;100168.72;5093902;28;19927;-64
2022/04/26 14:49:12;;;;;;;;;;;;;;;10.80;67.25;100164.38;5093919;28;19927;-64
2022/04/26 14:51:56;;;;;;;;;;;;;;;10.80;67.33;100168.72;5094322;28;19973;-64
2022/04/26 14:54:40;;;;;;;;;;;;;;;10.79;67.55;100161.78;5094071;28;19927;-64
2022/04/26 14:57:24;;;;;;;;;;;;;;;10.78;67.22;100167.81;5094354;28;20448;-65
2022/04/26 15:00:08;;;;;;;;;;;;;;;10.78;67.50;100162.63;5093759;28;20410;-64
2022/04/26 15:02:52;;;;;;;;;;;;;;;10.77;67.35;100163.47;5093655;28;19927;-64
2022/04/26 15:05:36;;;;;;;;;;;;;;;10.76;67.60;100159.13;5094000;28;19965;-64
2022/04/26 15:11:23;;;;;;;;;;;;;;;10.77;67.25;100155.69;5093846;28;19927;-64
2022/04/26 15:17:10;;;;;;;;;;;;;;;10.80;67.02;100155.75;5094253;28;19973;-63
2022/04/26 15:19:54;;;;;;;;;;;;;;;10.80;67.05;100150.56;5092495;28;19926;-65
2022/04/26 15:22:38;;;;;;;;;;;;;;;10.82;67.31;100154.91;5092873;28;20064;-64
2022/04/26 15:25:22;;;;;;;;;;;;;;;10.83;67.39;100148.00;5093502;28;19926;-64
2022/04/26 15:28:07;;;;;;;;;;;;;;;10.85;67.27;100155.81;5094025;28;19978;-64
2022/04/26 15:30:50;;;;;;;;;;;;;;;10.86;67.08;100152.38;5092645;28;19927;-64
2022/04/26 15:33:34;;;;;;;;;;;;;;;10.88;66.62;100151.53;5093989;28;19954;-64
2022/04/26 15:36:19;;;;;;;;;;;;;;;10.88;67.00;100154.13;5093543;28;19927;-64
2022/04/26 15:39:02;;;;;;;;;;;;;;;10.88;66.75;100159.31;5092964;28;19931;-64
2022/04/26 15:41:46;;;;;;;;;;;;;;;10.86;67.02;100161.00;5093095;28;20405;-64
2022/04/26 15:44:30;;;;;;;;;;;;;;;10.86;67.00;100163.59;5094020;28;20489;-64
2022/04/26 15:47:14;;;;;;;;;;;;;;;10.87;66.65;100172.28;5093480;28;20398;-64
2022/04/26 15:49:59;;;;;;;;;;;;;;;10.84;67.03;100170.47;5096165;28;20016;-63
2022/04/26 15:52:43;;;;;;;;;;;;;;;10.84;66.95;100167.88;5097218;28;19973;-64
2022/04/26 15:55:27;;;;;;;;;;;;;;;10.84;67.26;100173.06;5097625;28;19926;-64
2022/04/26 15:58:11;;;;;;;;;;;;;;;10.85;67.05;100174.81;5097070;28;19978;-64
2022/04/26 16:00:57;;;;;;;;;;;;;;;10.85;66.84;100173.97;5097252;28;20393;-64
2022/04/26 16:03:41;;;;;;;;;;;;;;;10.84;67.22;100180.00;5097571;28;19981;-64
2022/04/26 16:06:24;;;;;;;;;;;;;;;10.84;67.08;100172.22;5096215;28;19928;-64
2022/04/26 16:21:25;;;;;;;;;;;;;;;10.86;66.99;100173.97;5096664;28;20024;-64
2022/04/26 16:24:09;;;;;;;;;;;;;;;10.87;66.84;100175.72;5095823;28;20390;-64
2022/04/26 16:26:55;;;;;;;;;;;;;;;10.87;66.85;100180.06;5097013;28;20290;-64
2022/04/26 16:29:40;;;;;;;;;;;;;;;10.88;66.90;100187.00;5096048;28;19927;-65
2022/04/26 16:32:25;;;;;;;;;;;;;;;10.89;67.17;100179.22;5096017;28;19927;-64
2022/04/26 16:35:13;;;;;;;;;;;;;;;10.90;66.50;100186.16;5095216;28;19927;-64
2022/04/26 16:37:57;;;;;;;;;;;;;;;10.90;66.62;100186.16;5095785;28;19969;-64
2022/04/26 16:40:41;;;;;;;;;;;;;;;10.91;66.83;100189.59;5096534;28;19943;-64
2022/04/26 16:43:25;;;;;;;;;;;;;;;10.90;66.75;100191.34;5096481;28;20031;-64
2022/04/26 16:46:09;;;;;;;;;;;;;;;10.89;66.96;100192.19;5094935;28;20110;-65
2022/04/26 16:48:53;;;;;;;;;;;;;;;10.91;66.63;100199.97;5096205;28;19927;-64
2022/04/26 16:51:37;;;;;;;;;;;;;;;10.88;67.14;100187.00;5095238;28;19974;-64
2022/04/26 16:54:21;;;;;;;;;;;;;;;10.91;66.61;100200.88;5096026;28;19946;-65
2022/04/26 16:57:05;;;;;;;;;;;;;;;10.92;66.49;100202.63;5095026;28;19928;-64
2022/04/26 16:59:49;;;;;;;;;;;;;;;10.91;66.41;100203.47;5095961;28;20383;-64
2022/04/26 17:02:33;;;;;;;;;;;;;;;10.91;67.04;100205.16;5096138;28;19926;-64
2022/04/26 17:05:19;;;;;;;;;;;;;;;10.92;66.95;100206.91;5096070;28;19930;-64
2022/04/26 17:08:05;;;;;;;;;;;;;;;10.91;66.66;100200.88;5095175;28;19927;-64
2022/04/26 17:10:50;;;;;;;;;;;;;;;10.92;66.67;100207.81;5094819;28;19927;-64
2022/04/26 17:13:35;;;;;;;;;;;;;;;10.92;66.32;100213.00;5094816;28;19965;-64
2022/04/26 17:16:20;;;;;;;;;;;;;;;10.92;66.62;100212.09;5094812;28;19966;-64
2022/04/26 17:19:04;;;;;;;;;;;;;;;10.92;66.48;100217.28;5095911;28;19927;-64
2022/04/26 17:21:47;;;;;;;;;;;;;;;10.92;66.44;100217.28;5094902;28;20066;-64
2022/04/26 17:27:34;;;;;;;;;;;;;;;10.91;66.29;100223.31;5095615;28;19927;-64
2022/04/26 17:30:18;;;;;;;;;;;;;;;10.90;66.43;100227.66;5095356;28;19969;-64
2022/04/26 17:33:03;;;;;;;;;;;;;;;10.91;66.65;100231.97;5095592;28;20062;-64
2022/04/26 17:35:47;;;;;;;;;;;;;;;10.91;66.17;100237.16;5094539;28;19927;-64
2022/04/26 17:38:31;;;;;;;;;;;;;;;10.89;66.06;100232.81;5095126;28;19927;-65
2022/04/26 17:41:15;;;;;;;;;;;;;;;10.89;66.14;100244.03;5094997;28;19946;-64
2022/04/26 17:43:59;;;;;;;;;;;;;;;10.87;66.21;100242.28;5094049;28;20015;-63
2022/04/26 17:46:43;;;;;;;;;;;;;;;10.88;66.02;100251.81;5095490;28;19947;-65
2022/04/26 17:49:30;;;;;;;;;;;;;;;10.87;66.53;100250.06;5094894;28;19927;-65
2022/04/26 17:52:14;;;;;;;;;;;;;;;10.86;66.56;100246.56;5094525;28;19927;-64
2022/04/26 17:58:01;;;;;;;;;;;;;;;10.86;66.31;100264.72;5095211;28;19973;-64
2022/04/26 18:00:45;;;;;;;;;;;;;;;10.87;66.42;100268.22;5094370;28;20023;-64
2022/04/26 18:03:28;;;;;;;;;;;;;;;10.86;66.58;100264.72;5093726;28;19942;-64
2022/04/26 18:06:14;;;;;;;;;;;;;;;10.87;66.31;100271.66;5094791;28;20397;-64
2022/04/26 18:08:58;;;;;;;;;;;;;;;10.86;66.57;100275.09;5093802;28;20291;-64
2022/04/26 18:11:42;;;;;;;;;;;;;;;10.87;66.54;100278.59;5094158;28;19981;-64
2022/04/26 18:14:26;;;;;;;;;;;;;;;10.86;66.59;100279.44;5093446;28;19927;-64
2022/04/26 18:17:10;;;;;;;;;;;;;;;10.86;66.41;100280.28;5093913;28;19927;-64
2022/04/26 18:19:55;;;;;;;;;;;;;;;10.86;66.56;100282.03;5093354;28;19966;-64
2022/04/26 18:22:38;;;;;;;;;;;;;;;10.84;66.64;100292.34;5093421;28;19935;-64
2022/04/26 18:28:25;;;;;;;;;;;;;;;10.83;66.67;100295.78;5094383;28;20402;-64
2022/04/26 18:31:11;;;;;;;;;;;;;;;10.83;66.56;100293.19;5094706;28;19927;-64
2022/04/26 18:33:55;;;;;;;;;;;;;;;10.83;66.59;100295.78;5093530;28;19927;-64
2022/04/26 18:36:39;;;;;;;;;;;;;;;10.84;66.94;100300.13;5093936;28;19970;-65
2022/04/26 18:39:24;;;;;;;;;;;;;;;10.83;66.54;100300.97;5093365;28;19965;-64